createdAt,value
2022-11-01T00:02:07.026Z,24.83
2022-11-01T00:04:33.708Z,21.50
2022-11-01T00:07:00.683Z,21.00
2022-11-01T00:09:27.433Z,17.90
2022-11-01T00:11:54.174Z,15.50
2022-11-01T00:14:21.306Z,14.05
2022-11-01T00:16:48.901Z,15.10
2022-11-01T00:19:15.791Z,16.08
2022-11-01T00:21:42.884Z,14.43
2022-11-01T00:24:09.631Z,16.95
2022-11-01T00:26:36.453Z,17.63
2022-11-01T00:29:03.908Z,15.68
2022-11-01T00:31:30.519Z,6.40
2022-11-01T00:33:57.218Z,11.80
2022-11-01T00:36:25.001Z,10.13
2022-11-01T00:38:52.494Z,13.57
2022-11-01T00:41:21.116Z,14.63
2022-11-01T00:43:48.392Z,12.82
2022-11-01T00:46:15.210Z,12.82
2022-11-01T00:48:42.048Z,6.28
2022-11-01T00:51:08.712Z,6.95
2022-11-01T00:53:35.419Z,8.48
2022-11-01T00:56:04.028Z,6.75
2022-11-01T00:58:30.656Z,7.47
2022-11-01T01:00:57.504Z,6.50
2022-11-01T01:03:24.322Z,9.32
2022-11-01T01:05:53.118Z,9.48
2022-11-01T01:08:20.859Z,7.75
2022-11-01T01:10:48.218Z,8.48
2022-11-01T01:13:15.076Z,8.48
2022-11-01T01:15:42.085Z,7.70
2022-11-01T01:18:09.390Z,10.18
2022-11-01T01:20:36.476Z,8.30
2022-11-01T01:23:03.365Z,9.02
2022-11-01T01:25:30.032Z,8.43
2022-11-01T01:27:57.091Z,9.07
2022-11-01T01:30:23.848Z,9.07
2022-11-01T01:32:50.640Z,8.27
2022-11-01T01:35:17.421Z,8.32
2022-11-01T01:37:44.076Z,9.00
2022-11-01T01:40:11.054Z,7.47
2022-11-01T01:42:40.517Z,9.23
2022-11-01T01:45:25.535Z,9.07
2022-11-01T01:47:54.283Z,8.40
2022-11-01T01:50:33.569Z,11.55
2022-11-01T01:53:20.389Z,13.25
2022-11-01T01:55:59.187Z,19.50
2022-11-01T01:58:30.642Z,32.63
2022-11-01T02:00:58.426Z,34.97
2022-11-01T02:03:32.165Z,25.48
2022-11-01T02:06:11.912Z,13.38
2022-11-01T02:08:53.348Z,14.25
2022-11-01T02:11:20.973Z,7.90
2022-11-01T02:13:48.204Z,5.82
2022-11-01T02:16:47.167Z,5.35
2022-11-01T02:19:51.061Z,4.85
2022-11-01T02:22:26.918Z,4.10
2022-11-01T02:25:31.135Z,4.13
2022-11-01T02:28:17.076Z,3.97
2022-11-01T02:31:28.933Z,4.70
2022-11-01T02:34:40.385Z,5.57
2022-11-01T02:37:14.504Z,7.75
2022-11-01T02:39:47.288Z,6.80
2022-11-01T02:42:24.763Z,7.22
2022-11-01T02:45:31.530Z,13.35
2022-11-01T02:47:59.648Z,9.80
2022-11-01T02:50:42.136Z,16.15
2022-11-01T02:53:09.317Z,22.00
2022-11-01T02:55:36.293Z,18.70
2022-11-01T02:58:03.325Z,20.35
2022-11-01T03:00:36.267Z,18.85
2022-11-01T03:03:12.147Z,18.63
2022-11-01T03:06:00.345Z,24.00
2022-11-01T03:08:30.016Z,16.58
2022-11-01T03:11:10.567Z,17.90
2022-11-01T03:13:46.370Z,15.88
2022-11-01T03:16:30.995Z,17.67
2022-11-01T03:19:15.744Z,15.48
2022-11-01T03:21:53.119Z,18.27
2022-11-01T03:24:29.000Z,17.52
2022-11-01T03:27:27.884Z,19.40
2022-11-01T03:30:03.143Z,32.67
2022-11-01T03:32:36.562Z,27.48
2022-11-01T03:35:04.992Z,24.13
2022-11-01T03:37:33.941Z,18.65
2022-11-01T03:40:04.612Z,13.70
2022-11-01T03:42:33.497Z,10.38
2022-11-01T03:45:06.540Z,11.27
2022-11-01T03:47:34.807Z,20.08
2022-11-01T03:50:23.071Z,22.92
2022-11-01T03:52:50.258Z,13.30
2022-11-01T03:55:18.450Z,20.65
2022-11-01T03:57:50.196Z,18.27
2022-11-01T04:00:27.655Z,16.55
2022-11-01T04:02:55.612Z,25.35
2022-11-01T04:05:24.012Z,16.17
2022-11-01T04:07:51.699Z,13.32
2022-11-01T04:10:19.762Z,19.38
2022-11-01T04:12:48.406Z,16.85
2022-11-01T04:15:35.358Z,17.17
2022-11-01T04:18:37.430Z,14.93
2022-11-01T04:21:08.408Z,13.52
2022-11-01T04:23:35.539Z,9.68
2022-11-01T04:26:03.435Z,7.43
2022-11-01T04:28:30.196Z,10.27
2022-11-01T04:30:57.086Z,14.52
2022-11-01T04:33:24.301Z,18.48
2022-11-01T04:35:50.903Z,12.93
2022-11-01T04:38:17.632Z,18.42
2022-11-01T04:40:45.007Z,22.00
2022-11-01T04:43:12.594Z,9.93
2022-11-01T04:45:39.836Z,10.63
2022-11-01T04:48:13.487Z,12.18
2022-11-01T04:50:41.896Z,17.65
2022-11-01T04:53:11.559Z,17.83
2022-11-01T04:55:38.326Z,17.25
2022-11-01T04:58:06.760Z,12.35
2022-11-01T05:00:34.392Z,18.60
2022-11-01T05:03:07.181Z,20.00
2022-11-01T05:05:35.394Z,18.63
2022-11-01T05:08:11.195Z,16.35
2022-11-01T05:10:43.470Z,15.63
2022-11-01T05:13:11.724Z,11.88
2022-11-01T05:15:40.068Z,13.48
2022-11-01T05:18:10.468Z,10.50
2022-11-01T05:20:37.276Z,11.60
2022-11-01T05:23:05.542Z,9.77
2022-11-01T05:25:37.034Z,14.55
2022-11-01T05:28:08.173Z,11.07
2022-11-01T05:30:35.931Z,9.02
2022-11-01T05:33:04.108Z,12.52
2022-11-01T05:35:31.187Z,12.10
2022-11-01T05:37:58.157Z,16.77
2022-11-01T05:40:25.451Z,16.25
2022-11-01T05:42:52.235Z,18.88
2022-11-01T05:45:19.168Z,17.50
2022-11-01T05:47:45.840Z,15.52
2022-11-01T05:50:15.488Z,16.02
2022-11-01T05:52:43.139Z,22.52
2022-11-01T05:55:10.377Z,22.05
2022-11-01T05:57:37.671Z,21.92
2022-11-01T06:00:06.434Z,25.88
2022-11-01T06:02:34.024Z,25.33
2022-11-01T06:05:03.076Z,23.63
2022-11-01T06:07:30.289Z,24.17
2022-11-01T06:09:56.924Z,24.13
2022-11-01T06:12:25.673Z,34.75
2022-11-01T06:14:52.873Z,28.80
2022-11-01T06:17:19.675Z,29.80
2022-11-01T06:19:46.426Z,30.20
2022-11-01T06:22:13.207Z,29.83
2022-11-01T06:24:39.953Z,31.55
2022-11-01T06:27:11.521Z,33.05
2022-11-01T06:29:39.281Z,35.47
2022-11-01T06:32:09.119Z,31.67
2022-11-01T06:34:37.645Z,28.73
2022-11-01T06:37:06.248Z,30.35
2022-11-01T06:39:32.859Z,29.48
2022-11-01T06:41:59.590Z,24.58
2022-11-01T06:44:26.225Z,20.35
2022-11-01T06:46:54.926Z,22.92
2022-11-01T06:49:22.183Z,21.83
2022-11-01T06:51:48.966Z,19.90
2022-11-01T06:54:15.687Z,16.48
2022-11-01T06:56:42.410Z,17.95
2022-11-01T06:59:09.035Z,18.33
2022-11-01T07:01:36.011Z,16.48
2022-11-01T07:04:02.807Z,16.02
2022-11-01T07:06:31.119Z,16.35
2022-11-01T07:09:01.586Z,18.08
2022-11-01T07:11:31.466Z,21.70
2022-11-01T07:13:59.530Z,105.38
2022-11-01T07:16:26.923Z,84.70
2022-11-01T07:18:53.754Z,46.83
2022-11-01T07:21:20.883Z,34.00
2022-11-01T07:23:47.654Z,33.30
2022-11-01T07:26:14.506Z,29.77
2022-11-01T07:28:41.330Z,23.75
2022-11-01T07:31:08.219Z,14.82
2022-11-01T07:33:35.234Z,10.80
2022-11-01T07:36:02.708Z,9.35
2022-11-01T07:38:29.370Z,10.35
2022-11-01T07:40:56.156Z,7.03
2022-11-01T07:43:22.935Z,6.18
2022-11-01T07:45:49.639Z,6.50
2022-11-01T07:48:18.896Z,6.03
2022-11-01T07:50:46.454Z,6.03
2022-11-01T07:53:16.284Z,8.52
2022-11-01T07:55:43.772Z,7.43
2022-11-01T07:58:11.568Z,6.70
2022-11-01T08:00:39.721Z,5.75
2022-11-01T08:03:12.677Z,5.35
2022-11-01T08:05:40.607Z,5.03
2022-11-01T08:08:08.095Z,4.82
2022-11-01T08:10:35.739Z,3.70
2022-11-01T08:13:13.855Z,3.20
2022-11-01T08:15:41.026Z,3.53
2022-11-01T08:18:09.125Z,2.40
2022-11-01T08:20:35.886Z,3.10
2022-11-01T08:23:03.490Z,3.17
2022-11-01T08:25:31.057Z,3.35
2022-11-01T08:28:02.954Z,3.40
2022-11-01T08:30:29.921Z,3.28
2022-11-01T08:33:01.590Z,4.13
2022-11-01T08:35:29.554Z,3.95
2022-11-01T08:37:58.552Z,3.28
2022-11-01T08:40:26.754Z,3.72
2022-11-01T08:42:53.465Z,2.92
2022-11-01T08:45:20.563Z,2.92
2022-11-01T08:47:47.209Z,2.78
2022-11-01T08:50:16.208Z,2.72
2022-11-01T08:52:42.890Z,2.88
2022-11-01T08:55:11.278Z,2.70
2022-11-01T08:57:38.615Z,2.40
2022-11-01T09:00:10.392Z,2.60
2022-11-01T09:02:37.147Z,2.17
2022-11-01T09:05:06.285Z,2.30
2022-11-01T09:07:36.324Z,2.75
2022-11-01T09:10:04.069Z,1.88
2022-11-01T09:12:31.242Z,2.22
2022-11-01T09:14:58.090Z,1.90
2022-11-01T09:17:24.851Z,2.10
2022-11-01T09:19:51.730Z,2.20
2022-11-01T09:22:18.560Z,2.70
2022-11-01T09:24:45.497Z,2.03
2022-11-01T09:27:12.400Z,1.92
2022-11-01T09:29:39.098Z,2.45
2022-11-01T09:32:06.839Z,2.03
2022-11-01T09:34:34.238Z,2.15
2022-11-01T09:37:01.410Z,2.15
2022-11-01T09:39:28.104Z,2.08
2022-11-01T09:42:04.735Z,1.80
2022-11-01T09:44:39.916Z,2.33
2022-11-01T09:47:12.581Z,2.55
2022-11-01T09:49:44.380Z,2.30
2022-11-01T09:52:21.304Z,2.67
2022-11-01T09:54:48.694Z,2.05
2022-11-01T09:57:24.808Z,2.75
2022-11-01T09:59:54.441Z,2.50
2022-11-01T10:02:50.246Z,2.22
2022-11-01T10:05:41.717Z,2.58
2022-11-01T10:08:14.225Z,2.55
2022-11-01T10:11:19.070Z,2.38
2022-11-01T10:14:07.916Z,2.05
2022-11-01T10:16:42.183Z,1.85
2022-11-01T10:19:17.722Z,2.67
2022-11-01T10:21:56.292Z,2.55
2022-11-01T10:24:32.346Z,2.20
2022-11-01T10:27:14.056Z,1.90
2022-11-01T10:29:50.148Z,2.40
2022-11-01T10:32:25.738Z,1.42
2022-11-01T10:34:55.915Z,2.10
2022-11-01T10:37:47.212Z,2.20
2022-11-01T10:40:33.581Z,2.08
2022-11-01T10:43:01.257Z,2.15
2022-11-01T10:45:28.092Z,2.60
2022-11-01T10:47:58.255Z,5.20
2022-11-01T10:50:29.262Z,2.88
2022-11-01T10:53:06.699Z,2.00
2022-11-01T10:55:45.970Z,2.47
2022-11-01T10:58:28.327Z,2.00
2022-11-01T11:00:54.965Z,1.90
2022-11-01T11:03:25.892Z,2.35
2022-11-01T11:05:55.321Z,1.50
2022-11-01T11:08:24.617Z,1.80
2022-11-01T11:10:52.064Z,2.08
2022-11-01T11:13:25.411Z,1.92
2022-11-01T11:15:54.545Z,2.22
2022-11-01T11:18:29.501Z,2.10
2022-11-01T11:23:29.786Z,2.28
2022-11-01T11:26:05.329Z,1.85
2022-11-01T11:28:34.640Z,1.88
2022-11-01T11:31:13.561Z,1.83
2022-11-01T11:34:07.548Z,1.92
2022-11-01T11:36:36.135Z,2.08
2022-11-01T11:39:03.634Z,2.45
2022-11-01T11:41:33.072Z,2.30
2022-11-01T11:44:00.291Z,2.63
2022-11-01T11:46:27.125Z,1.60
2022-11-01T11:49:01.209Z,1.98
2022-11-01T11:51:29.921Z,1.90
2022-11-01T11:54:24.834Z,2.25
2022-11-01T11:57:07.795Z,2.35
2022-11-01T11:59:35.578Z,2.55
2022-11-01T12:02:05.320Z,2.10
2022-11-01T12:04:42.046Z,1.92
2022-11-01T12:07:30.613Z,2.40
2022-11-01T12:10:02.398Z,2.42
2022-11-01T12:12:34.940Z,2.45
2022-11-01T12:15:05.309Z,2.10
2022-11-01T12:17:33.438Z,2.20
2022-11-01T12:20:12.746Z,2.17
2022-11-01T12:22:45.126Z,2.30
2022-11-01T12:25:16.872Z,2.05
2022-11-01T12:27:57.788Z,2.00
2022-11-01T12:30:28.246Z,2.65
2022-11-01T12:32:58.194Z,2.55
2022-11-01T12:35:41.444Z,2.05
2022-11-01T12:38:29.578Z,1.90
2022-11-01T12:41:02.401Z,2.92
2022-11-01T12:43:45.072Z,2.70
2022-11-01T12:46:49.430Z,2.20
2022-11-01T12:49:34.801Z,2.15
2022-11-01T12:52:10.840Z,1.90
2022-11-01T12:54:47.070Z,2.30
2022-11-01T12:57:18.673Z,2.30
2022-11-01T12:59:47.229Z,2.38
2022-11-01T13:02:40.109Z,2.20
2022-11-01T13:05:53.176Z,2.65
2022-11-01T13:08:28.968Z,2.10
2022-11-01T13:11:04.196Z,2.40
2022-11-01T13:13:42.552Z,1.90
2022-11-01T13:16:20.011Z,2.58
2022-11-01T13:18:49.562Z,2.15
2022-11-01T13:21:36.757Z,2.03
2022-11-01T13:24:25.100Z,1.73
2022-11-01T13:27:01.232Z,2.25
2022-11-01T13:29:41.462Z,1.92
2022-11-01T13:32:44.738Z,2.42
2022-11-01T13:35:33.237Z,3.08
2022-11-01T13:38:05.765Z,2.58
2022-11-01T13:40:35.586Z,2.30
2022-11-01T13:43:10.069Z,3.00
2022-11-01T13:45:39.776Z,3.92
2022-11-01T13:48:22.960Z,2.97
2022-11-01T13:51:10.715Z,2.10
2022-11-01T13:53:49.486Z,2.35
2022-11-01T13:56:25.141Z,2.22
2022-11-01T13:58:52.131Z,2.83
2022-11-01T14:01:37.342Z,2.42
2022-11-01T14:06:49.358Z,6.00
2022-11-01T14:09:27.990Z,3.08
2022-11-01T14:12:05.345Z,3.13
2022-11-01T14:14:32.094Z,2.80
2022-11-01T14:17:20.567Z,2.40
2022-11-01T14:19:57.045Z,5.25
2022-11-01T14:22:28.028Z,5.43
2022-11-01T14:25:00.038Z,6.03
2022-11-01T14:27:34.952Z,5.35
2022-11-01T14:32:31.999Z,4.18
2022-11-01T14:35:06.620Z,5.45
2022-11-01T14:37:40.351Z,4.97
2022-11-01T14:40:25.938Z,4.72
2022-11-01T14:42:56.192Z,4.60
2022-11-01T14:45:28.338Z,5.15
2022-11-01T14:48:00.534Z,5.45
2022-11-01T14:50:35.592Z,5.65
2022-11-01T14:53:17.101Z,5.53
2022-11-01T14:55:43.716Z,6.38
2022-11-01T14:58:22.554Z,7.15
2022-11-01T15:00:55.104Z,9.43
2022-11-01T15:03:22.991Z,9.48
2022-11-01T15:05:52.856Z,12.05
2022-11-01T15:08:26.419Z,10.90
2022-11-01T15:10:56.117Z,12.07
2022-11-01T15:13:27.779Z,13.43
2022-11-01T15:16:03.840Z,12.60
2022-11-01T15:18:31.966Z,14.55
2022-11-01T15:21:01.061Z,14.05
2022-11-01T15:23:35.547Z,14.05
2022-11-01T15:26:08.480Z,14.30
2022-11-01T15:28:42.469Z,14.25
2022-11-01T15:31:10.120Z,16.55
2022-11-01T15:33:38.861Z,33.47
2022-11-01T15:36:21.032Z,25.60
2022-11-01T15:38:57.691Z,25.45
2022-11-01T15:41:32.815Z,17.60
2022-11-01T15:44:01.858Z,117.78
2022-11-01T15:46:40.950Z,48.97
2022-11-01T15:49:12.105Z,38.72
2022-11-01T15:51:48.411Z,30.13
2022-11-01T15:54:25.693Z,32.70
2022-11-01T15:57:00.037Z,47.13
2022-11-01T15:59:37.080Z,36.45
2022-11-01T16:02:11.597Z,58.67
2022-11-01T16:04:44.399Z,93.85
2022-11-01T16:07:16.681Z,62.08
2022-11-01T16:09:51.089Z,43.30
2022-11-01T16:12:22.471Z,28.25
2022-11-01T16:15:20.229Z,26.25
2022-11-01T16:17:47.064Z,20.27
2022-11-01T16:20:30.890Z,17.10
2022-11-01T16:23:03.250Z,36.28
2022-11-01T16:25:32.973Z,67.13
2022-11-01T16:28:08.795Z,55.88
2022-11-01T16:30:49.089Z,46.28
2022-11-01T16:33:28.951Z,26.77
2022-11-01T16:36:01.635Z,50.25
2022-11-01T16:38:35.414Z,32.30
2022-11-01T16:41:15.784Z,32.97
2022-11-01T16:43:43.072Z,33.13
2022-11-01T16:46:09.864Z,38.50
2022-11-01T16:48:58.911Z,39.25
2022-11-01T16:51:28.625Z,25.08
2022-11-01T16:54:00.505Z,21.05
2022-11-01T16:56:45.142Z,18.77
2022-11-01T16:59:17.661Z,17.20
2022-11-01T17:01:46.168Z,26.75
2022-11-01T17:04:14.181Z,27.92
2022-11-01T17:06:40.972Z,25.15
2022-11-01T17:09:16.058Z,23.88
2022-11-01T17:11:50.471Z,30.80
2022-11-01T17:16:47.800Z,30.40
2022-11-01T17:19:44.256Z,86.85
2022-11-01T17:22:20.968Z,41.92
2022-11-01T17:24:47.948Z,45.70
2022-11-01T17:27:15.721Z,47.65
2022-11-01T17:29:43.209Z,74.28
2022-11-01T17:32:11.510Z,51.80
2022-11-01T17:34:39.226Z,46.38
2022-11-01T17:37:06.678Z,46.40
2022-11-01T17:39:33.579Z,42.45
2022-11-01T17:42:00.247Z,40.85
2022-11-01T17:44:27.071Z,46.97
2022-11-01T17:46:53.924Z,47.35
2022-11-01T17:49:23.719Z,76.35
2022-11-01T17:51:54.481Z,80.85
2022-11-01T17:54:22.913Z,77.70
2022-11-01T17:56:51.225Z,79.20
2022-11-01T17:59:18.168Z,101.07
2022-11-01T18:01:45.259Z,97.18
2022-11-01T18:04:12.137Z,104.28
2022-11-01T18:06:40.873Z,76.93
2022-11-01T18:09:23.636Z,70.57
2022-11-01T18:12:12.310Z,84.65
2022-11-01T18:14:57.528Z,79.85
2022-11-01T18:17:46.725Z,67.78
2022-11-01T18:20:26.978Z,64.68
2022-11-01T18:22:57.921Z,62.75
2022-11-01T18:25:40.444Z,85.40
2022-11-01T18:28:19.005Z,109.97
2022-11-01T18:30:57.637Z,83.00
2022-11-01T18:33:31.072Z,46.65
2022-11-01T18:36:54.045Z,97.85
2022-11-01T18:39:26.802Z,79.47
2022-11-01T18:41:53.967Z,45.92
2022-11-01T18:44:20.599Z,27.75
2022-11-01T18:46:54.112Z,32.22
2022-11-01T18:49:25.665Z,21.92
2022-11-01T18:51:53.774Z,17.80
2022-11-01T18:54:26.162Z,16.77
2022-11-01T18:56:57.844Z,15.52
2022-11-01T18:59:32.054Z,16.35
2022-11-01T19:02:10.992Z,17.08
2022-11-01T19:04:41.051Z,19.45
2022-11-01T19:07:16.617Z,19.05
2022-11-01T19:09:48.331Z,23.13
2022-11-01T19:12:26.921Z,21.13
2022-11-01T19:15:03.221Z,21.77
2022-11-01T19:20:02.484Z,27.30
2022-11-01T19:22:45.794Z,37.70
2022-11-01T19:25:22.879Z,30.52
2022-11-01T19:27:53.492Z,46.17
2022-11-01T19:30:22.689Z,38.13
2022-11-01T19:32:50.453Z,29.73
2022-11-01T19:35:21.913Z,24.25
2022-11-01T19:37:52.640Z,28.02
2022-11-01T19:40:31.945Z,23.08
2022-11-01T19:43:12.189Z,20.02
2022-11-01T19:45:45.812Z,29.13
2022-11-01T19:48:15.981Z,38.65
2022-11-01T19:50:46.962Z,39.55
2022-11-01T19:53:20.291Z,46.60
2022-11-01T19:56:00.933Z,40.38
2022-11-01T19:58:35.731Z,29.52
2022-11-01T20:01:18.740Z,27.40
2022-11-01T20:03:57.965Z,28.63
2022-11-01T20:06:35.463Z,31.50
2022-11-01T20:09:17.024Z,30.90
2022-11-01T20:11:43.730Z,45.70
2022-11-01T20:14:10.421Z,29.50
2022-11-01T20:16:37.046Z,21.48
2022-11-01T20:19:03.876Z,16.83
2022-11-01T20:21:30.680Z,16.52
2022-11-01T20:23:59.182Z,17.38
2022-11-01T20:26:26.409Z,16.40
2022-11-01T20:28:53.318Z,25.05
2022-11-01T20:31:20.046Z,43.88
2022-11-01T20:33:46.756Z,33.38
2022-11-01T20:36:13.636Z,32.58
2022-11-01T20:38:41.066Z,30.27
2022-11-01T20:41:07.922Z,30.55
2022-11-01T20:43:35.201Z,31.65
2022-11-01T20:46:01.909Z,27.27
2022-11-01T20:48:28.673Z,31.48
2022-11-01T20:50:55.429Z,25.85
2022-11-01T20:53:24.835Z,18.23
2022-11-01T20:55:55.385Z,27.20
2022-11-01T20:58:22.367Z,24.83
2022-11-01T21:00:51.634Z,22.58
2022-11-01T21:03:21.030Z,24.25
2022-11-01T21:05:49.475Z,20.65
2022-11-01T21:08:23.474Z,18.77
2022-11-01T21:11:03.229Z,19.60
2022-11-01T21:13:37.303Z,20.85
2022-11-01T21:16:08.319Z,25.20
2022-11-01T21:18:41.865Z,20.02
2022-11-01T21:21:32.862Z,24.00
2022-11-01T21:24:01.024Z,20.98
2022-11-01T21:26:34.396Z,23.48
2022-11-01T21:29:25.635Z,20.55
2022-11-01T21:31:52.322Z,26.05
2022-11-01T21:34:27.469Z,23.55
2022-11-01T21:39:28.531Z,20.20
2022-11-01T21:41:57.357Z,19.85
2022-11-01T21:44:29.164Z,17.38
2022-11-01T21:47:14.058Z,15.73
2022-11-01T21:49:40.879Z,13.60
2022-11-01T21:54:38.205Z,15.30
2022-11-01T21:57:07.393Z,14.20
2022-11-01T21:59:34.836Z,14.25
2022-11-01T22:02:02.753Z,13.68
2022-11-01T22:04:31.275Z,17.83
2022-11-01T22:06:59.416Z,17.50
2022-11-01T22:09:26.408Z,17.95
2022-11-01T22:11:53.871Z,31.95
2022-11-01T22:14:20.944Z,29.30
2022-11-01T22:16:47.692Z,24.73
2022-11-01T22:19:14.447Z,24.92
2022-11-01T22:21:41.251Z,22.75
2022-11-01T22:24:08.403Z,24.80
2022-11-01T22:26:35.209Z,26.50
2022-11-01T22:29:02.011Z,29.08
2022-11-01T22:31:28.747Z,24.48
2022-11-01T22:33:56.700Z,23.65
2022-11-01T22:36:31.753Z,19.83
2022-11-01T22:41:31.620Z,17.52
2022-11-01T22:44:06.534Z,14.90
2022-11-01T22:46:45.232Z,15.38
2022-11-01T22:49:45.525Z,14.55
2022-11-01T22:52:15.860Z,13.93
2022-11-01T22:54:52.116Z,12.48
2022-11-01T22:57:21.825Z,12.85
2022-11-01T22:59:52.764Z,12.75
2022-11-01T23:02:27.843Z,12.23
2022-11-01T23:05:06.723Z,12.50
2022-11-01T23:07:40.071Z,12.23
2022-11-01T23:10:22.916Z,10.93
2022-11-01T23:13:10.788Z,10.02
2022-11-01T23:15:37.503Z,10.38
2022-11-01T23:18:17.344Z,11.05
2022-11-01T23:21:08.021Z,10.77
2022-11-01T23:23:37.408Z,12.13
2022-11-01T23:26:04.141Z,10.45
2022-11-01T23:28:35.297Z,10.13
2022-11-01T23:31:04.750Z,12.05
2022-11-01T23:33:39.945Z,10.07
2022-11-01T23:36:18.020Z,10.10
2022-11-01T23:38:48.703Z,9.50
2022-11-01T23:41:23.944Z,9.75
2022-11-01T23:43:54.012Z,8.90
2022-11-01T23:46:20.661Z,9.05
2022-11-01T23:48:47.447Z,8.05
2022-11-01T23:51:19.400Z,8.95
2022-11-01T23:53:48.850Z,8.40
2022-11-01T23:56:19.611Z,9.15
2022-11-01T23:58:54.174Z,8.85
